sensor_id;sensor_type;location;lat;lon;timestamp;P1;durP1;ratioP1;P2;durP2;ratioP2
56239;SDS011;42154;51.992;5.896;2024-01-16T00:01:10;5.10;;;1.92;;
56239;SDS011;42154;51.992;5.896;2024-01-16T00:03:37;4.97;;;1.80;;
56239;SDS011;42154;51.992;5.896;2024-01-16T00:06:03;6.60;;;1.92;;
56239;SDS011;42154;51.992;5.896;2024-01-16T00:08:29;7.43;;;2.05;;
56239;SDS011;42154;51.992;5.896;2024-01-16T00:10:55;5.75;;;1.70;;
56239;SDS011;42154;51.992;5.896;2024-01-16T00:13:20;5.82;;;1.77;;
56239;SDS011;42154;51.992;5.896;2024-01-16T00:15:46;4.50;;;1.40;;
56239;SDS011;42154;51.992;5.896;2024-01-16T00:18:12;4.20;;;1.60;;
56239;SDS011;42154;51.992;5.896;2024-01-16T00:20:38;2.75;;;1.30;;
56239;SDS011;42154;51.992;5.896;2024-01-16T00:23:04;3.53;;;1.40;;
56239;SDS011;42154;51.992;5.896;2024-01-16T00:25:29;6.20;;;1.50;;
56239;SDS011;42154;51.992;5.896;2024-01-16T00:27:55;5.80;;;1.33;;
56239;SDS011;42154;51.992;5.896;2024-01-16T00:30:21;4.55;;;1.13;;
56239;SDS011;42154;51.992;5.896;2024-01-16T00:32:46;4.70;;;1.40;;
56239;SDS011;42154;51.992;5.896;2024-01-16T00:35:12;5.55;;;1.25;;
56239;SDS011;42154;51.992;5.896;2024-01-16T00:37:38;5.00;;;1.45;;
56239;SDS011;42154;51.992;5.896;2024-01-16T00:40:05;5.72;;;1.40;;
56239;SDS011;42154;51.992;5.896;2024-01-16T00:42:33;4.07;;;1.25;;
56239;SDS011;42154;51.992;5.896;2024-01-16T00:44:59;7.20;;;1.50;;
56239;SDS011;42154;51.992;5.896;2024-01-16T00:47:26;4.32;;;1.30;;
56239;SDS011;42154;51.992;5.896;2024-01-16T00:49:51;4.05;;;1.10;;
56239;SDS011;42154;51.992;5.896;2024-01-16T00:52:18;4.47;;;1.25;;
56239;SDS011;42154;51.992;5.896;2024-01-16T00:54:44;6.32;;;1.58;;
56239;SDS011;42154;51.992;5.896;2024-01-16T00:57:10;2.63;;;0.90;;
56239;SDS011;42154;51.992;5.896;2024-01-16T00:59:36;3.38;;;1.10;;
56239;SDS011;42154;51.992;5.896;2024-01-16T01:02:02;5.60;;;1.25;;
56239;SDS011;42154;51.992;5.896;2024-01-16T01:04:32;4.07;;;1.23;;
56239;SDS011;42154;51.992;5.896;2024-01-16T01:06:59;4.60;;;1.20;;
56239;SDS011;42154;51.992;5.896;2024-01-16T01:09:24;6.13;;;1.30;;
56239;SDS011;42154;51.992;5.896;2024-01-16T01:11:50;8.27;;;2.10;;
56239;SDS011;42154;51.992;5.896;2024-01-16T01:14:16;3.83;;;1.00;;
56239;SDS011;42154;51.992;5.896;2024-01-16T01:16:41;5.95;;;1.60;;
56239;SDS011;42154;51.992;5.896;2024-01-16T01:19:07;5.57;;;1.30;;
56239;SDS011;42154;51.992;5.896;2024-01-16T01:21:34;5.40;;;1.08;;
56239;SDS011;42154;51.992;5.896;2024-01-16T01:24:01;7.85;;;1.33;;
56239;SDS011;42154;51.992;5.896;2024-01-16T01:26:26;5.53;;;1.33;;
56239;SDS011;42154;51.992;5.896;2024-01-16T01:28:52;4.05;;;1.50;;
56239;SDS011;42154;51.992;5.896;2024-01-16T01:31:18;3.00;;;1.20;;
56239;SDS011;42154;51.992;5.896;2024-01-16T01:33:43;3.53;;;1.30;;
56239;SDS011;42154;51.992;5.896;2024-01-16T01:36:09;3.90;;;1.60;;
56239;SDS011;42154;51.992;5.896;2024-01-16T01:38:35;5.10;;;1.50;;
56239;SDS011;42154;51.992;5.896;2024-01-16T01:41:01;4.53;;;1.73;;
56239;SDS011;42154;51.992;5.896;2024-01-16T01:43:26;4.28;;;1.40;;
56239;SDS011;42154;51.992;5.896;2024-01-16T01:48:42;2.72;;;1.15;;
56239;SDS011;42154;51.992;5.896;2024-01-16T01:51:08;3.03;;;1.50;;
56239;SDS011;42154;51.992;5.896;2024-01-16T01:53:36;1.63;;;0.80;;
56239;SDS011;42154;51.992;5.896;2024-01-16T01:56:04;3.60;;;1.20;;
56239;SDS011;42154;51.992;5.896;2024-01-16T01:58:36;2.63;;;1.10;;
56239;SDS011;42154;51.992;5.896;2024-01-16T02:01:03;2.23;;;1.00;;
56239;SDS011;42154;51.992;5.896;2024-01-16T02:03:32;7.35;;;1.90;;
56239;SDS011;42154;51.992;5.896;2024-01-16T02:06:04;2.92;;;1.50;;
56239;SDS011;42154;51.992;5.896;2024-01-16T02:08:30;5.28;;;1.70;;
56239;SDS011;42154;51.992;5.896;2024-01-16T02:10:56;3.65;;;1.27;;
56239;SDS011;42154;51.992;5.896;2024-01-16T02:13:22;3.72;;;1.58;;
56239;SDS011;42154;51.992;5.896;2024-01-16T02:15:49;5.65;;;1.52;;
56239;SDS011;42154;51.992;5.896;2024-01-16T02:18:15;5.20;;;1.80;;
56239;SDS011;42154;51.992;5.896;2024-01-16T02:20:41;4.30;;;1.20;;
56239;SDS011;42154;51.992;5.896;2024-01-16T02:23:08;4.35;;;1.48;;
56239;SDS011;42154;51.992;5.896;2024-01-16T02:25:37;6.40;;;1.65;;
56239;SDS011;42154;51.992;5.896;2024-01-16T02:28:04;3.95;;;1.50;;
56239;SDS011;42154;51.992;5.896;2024-01-16T02:30:30;4.55;;;1.48;;
56239;SDS011;42154;51.992;5.896;2024-01-16T02:32:56;3.45;;;1.20;;
56239;SDS011;42154;51.992;5.896;2024-01-16T02:35:22;3.00;;;1.40;;
56239;SDS011;42154;51.992;5.896;2024-01-16T02:37:47;5.93;;;1.60;;
56239;SDS011;42154;51.992;5.896;2024-01-16T02:40:13;5.40;;;1.80;;
56239;SDS011;42154;51.992;5.896;2024-01-16T02:42:39;7.57;;;2.00;;
56239;SDS011;42154;51.992;5.896;2024-01-16T02:45:05;6.07;;;2.13;;
56239;SDS011;42154;51.992;5.896;2024-01-16T02:47:32;5.57;;;2.13;;
56239;SDS011;42154;51.992;5.896;2024-01-16T02:49:59;4.80;;;2.28;;
56239;SDS011;42154;51.992;5.896;2024-01-16T02:52:25;5.55;;;2.33;;
56239;SDS011;42154;51.992;5.896;2024-01-16T02:54:51;5.93;;;2.25;;
56239;SDS011;42154;51.992;5.896;2024-01-16T02:57:16;6.38;;;3.20;;
56239;SDS011;42154;51.992;5.896;2024-01-16T02:59:46;7.30;;;3.00;;
56239;SDS011;42154;51.992;5.896;2024-01-16T03:02:12;8.05;;;3.30;;
56239;SDS011;42154;51.992;5.896;2024-01-16T03:04:38;7.72;;;2.88;;
56239;SDS011;42154;51.992;5.896;2024-01-16T03:07:04;7.95;;;3.38;;
56239;SDS011;42154;51.992;5.896;2024-01-16T03:09:30;6.43;;;3.00;;
56239;SDS011;42154;51.992;5.896;2024-01-16T03:11:56;6.93;;;2.92;;
56239;SDS011;42154;51.992;5.896;2024-01-16T03:14:23;8.90;;;2.80;;
56239;SDS011;42154;51.992;5.896;2024-01-16T03:16:48;5.68;;;3.08;;
56239;SDS011;42154;51.992;5.896;2024-01-16T03:19:14;5.65;;;2.70;;
56239;SDS011;42154;51.992;5.896;2024-01-16T03:21:40;5.85;;;3.00;;
56239;SDS011;42154;51.992;5.896;2024-01-16T03:24:06;5.43;;;2.63;;
56239;SDS011;42154;51.992;5.896;2024-01-16T03:26:32;8.82;;;2.78;;
56239;SDS011;42154;51.992;5.896;2024-01-16T03:28:58;5.68;;;2.25;;
56239;SDS011;42154;51.992;5.896;2024-01-16T03:31:24;6.25;;;2.78;;
56239;SDS011;42154;51.992;5.896;2024-01-16T03:33:50;4.32;;;2.22;;
56239;SDS011;42154;51.992;5.896;2024-01-16T03:36:16;4.97;;;2.20;;
56239;SDS011;42154;51.992;5.896;2024-01-16T03:38:42;4.80;;;2.22;;
56239;SDS011;42154;51.992;5.896;2024-01-16T03:41:10;4.57;;;2.58;;
56239;SDS011;42154;51.992;5.896;2024-01-16T03:43:36;4.50;;;2.50;;
56239;SDS011;42154;51.992;5.896;2024-01-16T03:46:02;6.80;;;2.60;;
56239;SDS011;42154;51.992;5.896;2024-01-16T03:48:28;3.58;;;2.35;;
56239;SDS011;42154;51.992;5.896;2024-01-16T03:50:55;3.67;;;2.80;;
56239;SDS011;42154;51.992;5.896;2024-01-16T03:53:21;5.30;;;2.50;;
56239;SDS011;42154;51.992;5.896;2024-01-16T03:55:47;9.40;;;3.25;;
56239;SDS011;42154;51.992;5.896;2024-01-16T03:58:15;9.05;;;3.95;;
56239;SDS011;42154;51.992;5.896;2024-01-16T04:00:41;5.43;;;3.10;;
56239;SDS011;42154;51.992;5.896;2024-01-16T04:03:07;5.20;;;3.55;;
56239;SDS011;42154;51.992;5.896;2024-01-16T04:05:33;6.55;;;3.78;;
56239;SDS011;42154;51.992;5.896;2024-01-16T04:07:58;6.43;;;3.80;;
56239;SDS011;42154;51.992;5.896;2024-01-16T04:10:25;7.03;;;3.78;;
56239;SDS011;42154;51.992;5.896;2024-01-16T04:12:51;4.90;;;3.40;;
56239;SDS011;42154;51.992;5.896;2024-01-16T04:15:17;7.32;;;4.40;;
56239;SDS011;42154;51.992;5.896;2024-01-16T04:17:42;5.95;;;3.20;;
56239;SDS011;42154;51.992;5.896;2024-01-16T04:20:08;7.03;;;3.75;;
56239;SDS011;42154;51.992;5.896;2024-01-16T04:22:35;6.32;;;3.80;;
56239;SDS011;42154;51.992;5.896;2024-01-16T04:25:01;7.53;;;3.55;;
56239;SDS011;42154;51.992;5.896;2024-01-16T04:27:30;7.03;;;3.65;;
56239;SDS011;42154;51.992;5.896;2024-01-16T04:29:56;7.05;;;3.20;;
56239;SDS011;42154;51.992;5.896;2024-01-16T04:32:22;5.97;;;2.65;;
56239;SDS011;42154;51.992;5.896;2024-01-16T04:34:48;6.70;;;3.28;;
56239;SDS011;42154;51.992;5.896;2024-01-16T04:37:13;5.07;;;3.17;;
56239;SDS011;42154;51.992;5.896;2024-01-16T04:39:39;6.18;;;3.20;;
56239;SDS011;42154;51.992;5.896;2024-01-16T04:42:05;6.70;;;3.33;;
56239;SDS011;42154;51.992;5.896;2024-01-16T04:44:30;5.05;;;2.25;;
56239;SDS011;42154;51.992;5.896;2024-01-16T04:46:56;4.00;;;2.22;;
56239;SDS011;42154;51.992;5.896;2024-01-16T04:49:22;4.28;;;2.50;;
56239;SDS011;42154;51.992;5.896;2024-01-16T04:51:47;6.13;;;2.40;;
56239;SDS011;42154;51.992;5.896;2024-01-16T04:54:13;5.57;;;2.75;;
56239;SDS011;42154;51.992;5.896;2024-01-16T04:56:39;5.97;;;2.90;;
56239;SDS011;42154;51.992;5.896;2024-01-16T04:59:05;6.90;;;3.20;;
56239;SDS011;42154;51.992;5.896;2024-01-16T05:01:30;4.05;;;2.50;;
56239;SDS011;42154;51.992;5.896;2024-01-16T05:03:56;5.10;;;2.80;;
56239;SDS011;42154;51.992;5.896;2024-01-16T05:06:22;4.07;;;2.40;;
56239;SDS011;42154;51.992;5.896;2024-01-16T05:08:48;6.18;;;3.03;;
56239;SDS011;42154;51.992;5.896;2024-01-16T05:11:13;4.53;;;2.35;;
56239;SDS011;42154;51.992;5.896;2024-01-16T05:13:39;4.30;;;2.78;;
56239;SDS011;42154;51.992;5.896;2024-01-16T05:16:05;5.75;;;2.30;;
56239;SDS011;42154;51.992;5.896;2024-01-16T05:18:31;4.95;;;2.72;;
56239;SDS011;42154;51.992;5.896;2024-01-16T05:20:58;3.40;;;2.20;;
56239;SDS011;42154;51.992;5.896;2024-01-16T05:23:24;4.50;;;2.78;;
56239;SDS011;42154;51.992;5.896;2024-01-16T05:25:50;4.45;;;2.80;;
56239;SDS011;42154;51.992;5.896;2024-01-16T05:28:16;4.38;;;2.70;;
56239;SDS011;42154;51.992;5.896;2024-01-16T05:30:43;4.30;;;2.75;;
56239;SDS011;42154;51.992;5.896;2024-01-16T05:33:09;7.93;;;4.72;;
56239;SDS011;42154;51.992;5.896;2024-01-16T05:35:35;7.07;;;4.20;;
56239;SDS011;42154;51.992;5.896;2024-01-16T05:38:00;9.10;;;4.55;;
56239;SDS011;42154;51.992;5.896;2024-01-16T05:40:26;9.38;;;4.63;;
56239;SDS011;42154;51.992;5.896;2024-01-16T05:42:52;7.65;;;4.75;;
56239;SDS011;42154;51.992;5.896;2024-01-16T05:45:18;9.65;;;5.13;;
56239;SDS011;42154;51.992;5.896;2024-01-16T05:47:44;7.07;;;3.90;;
56239;SDS011;42154;51.992;5.896;2024-01-16T05:50:10;7.22;;;4.07;;
56239;SDS011;42154;51.992;5.896;2024-01-16T05:52:36;6.20;;;3.42;;
56239;SDS011;42154;51.992;5.896;2024-01-16T05:55:02;6.75;;;3.33;;
56239;SDS011;42154;51.992;5.896;2024-01-16T05:57:28;4.90;;;2.83;;
56239;SDS011;42154;51.992;5.896;2024-01-16T05:59:57;4.75;;;2.97;;
56239;SDS011;42154;51.992;5.896;2024-01-16T06:02:23;5.32;;;2.58;;
56239;SDS011;42154;51.992;5.896;2024-01-16T06:04:49;4.45;;;2.40;;
56239;SDS011;42154;51.992;5.896;2024-01-16T06:07:16;4.97;;;2.30;;
56239;SDS011;42154;51.992;5.896;2024-01-16T06:09:41;5.07;;;1.83;;
56239;SDS011;42154;51.992;5.896;2024-01-16T06:12:07;5.28;;;1.52;;
56239;SDS011;42154;51.992;5.896;2024-01-16T06:14:33;4.35;;;1.38;;
56239;SDS011;42154;51.992;5.896;2024-01-16T06:17:00;3.25;;;1.40;;
56239;SDS011;42154;51.992;5.896;2024-01-16T06:19:26;6.25;;;1.40;;
56239;SDS011;42154;51.992;5.896;2024-01-16T06:21:53;3.92;;;1.48;;
56239;SDS011;42154;51.992;5.896;2024-01-16T06:24:18;3.28;;;1.40;;
56239;SDS011;42154;51.992;5.896;2024-01-16T06:26:44;7.75;;;2.10;;
56239;SDS011;42154;51.992;5.896;2024-01-16T06:29:10;5.93;;;1.45;;
56239;SDS011;42154;51.992;5.896;2024-01-16T06:31:35;5.00;;;1.55;;
56239;SDS011;42154;51.992;5.896;2024-01-16T06:34:01;6.85;;;1.95;;
56239;SDS011;42154;51.992;5.896;2024-01-16T06:36:27;6.90;;;2.45;;
56239;SDS011;42154;51.992;5.896;2024-01-16T06:38:52;2.47;;;1.33;;
56239;SDS011;42154;51.992;5.896;2024-01-16T06:41:18;6.22;;;1.60;;
56239;SDS011;42154;51.992;5.896;2024-01-16T06:43:44;4.82;;;1.88;;
56239;SDS011;42154;51.992;5.896;2024-01-16T06:46:10;3.20;;;1.58;;
56239;SDS011;42154;51.992;5.896;2024-01-16T06:48:36;5.32;;;2.10;;
56239;SDS011;42154;51.992;5.896;2024-01-16T06:51:05;5.88;;;1.88;;
56239;SDS011;42154;51.992;5.896;2024-01-16T06:53:31;3.80;;;1.63;;
56239;SDS011;42154;51.992;5.896;2024-01-16T06:55:56;8.35;;;2.13;;
56239;SDS011;42154;51.992;5.896;2024-01-16T06:58:22;6.25;;;1.95;;
56239;SDS011;42154;51.992;5.896;2024-01-16T07:00:48;3.17;;;2.03;;
56239;SDS011;42154;51.992;5.896;2024-01-16T07:03:14;4.97;;;1.77;;
56239;SDS011;42154;51.992;5.896;2024-01-16T07:05:40;6.78;;;2.50;;
56239;SDS011;42154;51.992;5.896;2024-01-16T07:08:08;5.40;;;2.10;;
56239;SDS011;42154;51.992;5.896;2024-01-16T07:10:35;6.32;;;2.47;;
56239;SDS011;42154;51.992;5.896;2024-01-16T07:13:01;8.95;;;2.63;;
56239;SDS011;42154;51.992;5.896;2024-01-16T07:15:27;4.82;;;2.40;;
56239;SDS011;42154;51.992;5.896;2024-01-16T07:17:53;3.13;;;1.83;;
56239;SDS011;42154;51.992;5.896;2024-01-16T07:20:19;3.65;;;2.13;;
56239;SDS011;42154;51.992;5.896;2024-01-16T07:22:45;4.38;;;2.00;;
56239;SDS011;42154;51.992;5.896;2024-01-16T07:25:11;5.93;;;2.13;;
56239;SDS011;42154;51.992;5.896;2024-01-16T07:27:37;7.45;;;2.33;;
56239;SDS011;42154;51.992;5.896;2024-01-16T07:30:05;6.22;;;3.20;;
56239;SDS011;42154;51.992;5.896;2024-01-16T07:32:32;8.13;;;2.55;;
56239;SDS011;42154;51.992;5.896;2024-01-16T07:34:58;4.50;;;2.40;;
56239;SDS011;42154;51.992;5.896;2024-01-16T07:37:24;4.75;;;2.28;;
56239;SDS011;42154;51.992;5.896;2024-01-16T07:39:49;6.63;;;3.42;;
56239;SDS011;42154;51.992;5.896;2024-01-16T07:42:15;6.25;;;2.90;;
56239;SDS011;42154;51.992;5.896;2024-01-16T07:44:41;6.13;;;2.90;;
56239;SDS011;42154;51.992;5.896;2024-01-16T07:47:07;6.85;;;2.70;;
56239;SDS011;42154;51.992;5.896;2024-01-16T07:49:33;5.88;;;3.22;;
56239;SDS011;42154;51.992;5.896;2024-01-16T07:51:59;7.25;;;3.67;;
56239;SDS011;42154;51.992;5.896;2024-01-16T07:54:25;8.20;;;4.10;;
56239;SDS011;42154;51.992;5.896;2024-01-16T07:56:51;6.47;;;3.63;;
56239;SDS011;42154;51.992;5.896;2024-01-16T07:59:17;9.65;;;4.30;;
56239;SDS011;42154;51.992;5.896;2024-01-16T08:01:43;8.52;;;4.60;;
56239;SDS011;42154;51.992;5.896;2024-01-16T08:04:09;8.63;;;4.75;;
56239;SDS011;42154;51.992;5.896;2024-01-16T08:06:34;12.32;;;5.47;;
56239;SDS011;42154;51.992;5.896;2024-01-16T08:09:00;11.95;;;6.57;;
56239;SDS011;42154;51.992;5.896;2024-01-16T08:11:26;11.48;;;6.55;;
56239;SDS011;42154;51.992;5.896;2024-01-16T08:13:52;10.07;;;7.38;;
56239;SDS011;42154;51.992;5.896;2024-01-16T08:16:18;11.00;;;6.85;;
56239;SDS011;42154;51.992;5.896;2024-01-16T08:18:44;11.48;;;7.20;;
56239;SDS011;42154;51.992;5.896;2024-01-16T08:21:09;11.52;;;7.10;;
56239;SDS011;42154;51.992;5.896;2024-01-16T08:23:36;11.05;;;7.53;;
56239;SDS011;42154;51.992;5.896;2024-01-16T08:26:02;13.50;;;8.13;;
56239;SDS011;42154;51.992;5.896;2024-01-16T08:28:28;13.02;;;8.18;;
56239;SDS011;42154;51.992;5.896;2024-01-16T08:30:54;12.75;;;8.45;;
56239;SDS011;42154;51.992;5.896;2024-01-16T08:33:19;14.05;;;8.90;;
56239;SDS011;42154;51.992;5.896;2024-01-16T08:35:45;14.43;;;8.50;;
56239;SDS011;42154;51.992;5.896;2024-01-16T08:38:11;11.38;;;8.02;;
56239;SDS011;42154;51.992;5.896;2024-01-16T08:40:36;16.30;;;8.20;;
56239;SDS011;42154;51.992;5.896;2024-01-16T08:43:02;12.90;;;7.88;;
56239;SDS011;42154;51.992;5.896;2024-01-16T08:45:28;10.60;;;7.30;;
56239;SDS011;42154;51.992;5.896;2024-01-16T08:47:54;9.95;;;7.28;;
56239;SDS011;42154;51.992;5.896;2024-01-16T08:50:20;16.85;;;7.63;;
56239;SDS011;42154;51.992;5.896;2024-01-16T08:52:46;11.75;;;7.55;;
56239;SDS011;42154;51.992;5.896;2024-01-16T08:55:12;12.70;;;7.47;;
56239;SDS011;42154;51.992;5.896;2024-01-16T08:57:37;12.88;;;7.55;;
56239;SDS011;42154;51.992;5.896;2024-01-16T09:00:06;10.60;;;6.50;;
56239;SDS011;42154;51.992;5.896;2024-01-16T09:02:34;10.02;;;5.25;;
56239;SDS011;42154;51.992;5.896;2024-01-16T09:05:00;14.55;;;7.43;;
56239;SDS011;42154;51.992;5.896;2024-01-16T09:07:26;10.82;;;5.95;;
56239;SDS011;42154;51.992;5.896;2024-01-16T09:09:52;10.00;;;5.93;;
56239;SDS011;42154;51.992;5.896;2024-01-16T09:12:18;9.95;;;5.90;;
56239;SDS011;42154;51.992;5.896;2024-01-16T09:14:45;9.55;;;5.70;;
56239;SDS011;42154;51.992;5.896;2024-01-16T09:17:10;9.25;;;5.90;;
56239;SDS011;42154;51.992;5.896;2024-01-16T09:19:36;11.55;;;5.43;;
56239;SDS011;42154;51.992;5.896;2024-01-16T09:22:02;9.18;;;5.57;;
56239;SDS011;42154;51.992;5.896;2024-01-16T09:24:29;10.70;;;5.53;;
56239;SDS011;42154;51.992;5.896;2024-01-16T09:26:55;9.23;;;5.50;;
56239;SDS011;42154;51.992;5.896;2024-01-16T09:29:20;9.57;;;5.13;;
56239;SDS011;42154;51.992;5.896;2024-01-16T09:31:49;11.80;;;5.05;;
56239;SDS011;42154;51.992;5.896;2024-01-16T09:34:15;12.23;;;5.43;;
56239;SDS011;42154;51.992;5.896;2024-01-16T09:36:42;10.20;;;4.72;;
56239;SDS011;42154;51.992;5.896;2024-01-16T09:39:08;11.98;;;4.93;;
56239;SDS011;42154;51.992;5.896;2024-01-16T09:41:36;5.68;;;4.18;;
56239;SDS011;42154;51.992;5.896;2024-01-16T09:44:02;8.38;;;4.40;;
56239;SDS011;42154;51.992;5.896;2024-01-16T09:46:29;11.27;;;4.70;;
56239;SDS011;42154;51.992;5.896;2024-01-16T09:48:57;9.57;;;4.82;;
56239;SDS011;42154;51.992;5.896;2024-01-16T09:51:25;6.72;;;4.28;;
56239;SDS011;42154;51.992;5.896;2024-01-16T09:53:51;11.00;;;4.78;;
56239;SDS011;42154;51.992;5.896;2024-01-16T09:56:20;10.10;;;4.30;;
56239;SDS011;42154;51.992;5.896;2024-01-16T09:58:48;10.75;;;4.60;;
56239;SDS011;42154;51.992;5.896;2024-01-16T10:01:15;7.55;;;3.85;;
56239;SDS011;42154;51.992;5.896;2024-01-16T10:03:44;9.30;;;4.40;;
56239;SDS011;42154;51.992;5.896;2024-01-16T10:06:10;9.50;;;4.63;;
56239;SDS011;42154;51.992;5.896;2024-01-16T10:08:37;7.40;;;4.05;;
56239;SDS011;42154;51.992;5.896;2024-01-16T10:11:04;9.95;;;4.13;;
56239;SDS011;42154;51.992;5.896;2024-01-16T10:13:30;9.40;;;4.35;;
56239;SDS011;42154;51.992;5.896;2024-01-16T10:15:57;12.75;;;4.90;;
56239;SDS011;42154;51.992;5.896;2024-01-16T10:18:28;8.80;;;4.28;;
56239;SDS011;42154;51.992;5.896;2024-01-16T10:20:59;8.45;;;3.47;;
56239;SDS011;42154;51.992;5.896;2024-01-16T10:23:28;9.25;;;4.53;;
56239;SDS011;42154;51.992;5.896;2024-01-16T10:26:05;11.38;;;4.38;;
56239;SDS011;42154;51.992;5.896;2024-01-16T10:28:34;10.75;;;4.07;;
56239;SDS011;42154;51.992;5.896;2024-01-16T10:31:10;10.13;;;4.28;;
56239;SDS011;42154;51.992;5.896;2024-01-16T10:33:37;7.18;;;3.60;;
56239;SDS011;42154;51.992;5.896;2024-01-16T10:38:38;13.45;;;4.15;;
56239;SDS011;42154;51.992;5.896;2024-01-16T10:41:15;9.52;;;3.83;;
56239;SDS011;42154;51.992;5.896;2024-01-16T10:43:50;9.48;;;3.83;;
56239;SDS011;42154;51.992;5.896;2024-01-16T10:46:29;6.15;;;3.53;;
56239;SDS011;42154;51.992;5.896;2024-01-16T10:48:58;10.02;;;4.00;;
56239;SDS011;42154;51.992;5.896;2024-01-16T10:51:26;5.55;;;2.63;;
56239;SDS011;42154;51.992;5.896;2024-01-16T10:53:54;5.25;;;3.47;;
56239;SDS011;42154;51.992;5.896;2024-01-16T10:56:26;6.25;;;3.20;;
56239;SDS011;42154;51.992;5.896;2024-01-16T10:59:37;8.75;;;3.90;;
56239;SDS011;42154;51.992;5.896;2024-01-16T11:01:54;7.65;;;3.35;;
56239;SDS011;42154;51.992;5.896;2024-01-16T11:04:23;4.95;;;3.35;;
56239;SDS011;42154;51.992;5.896;2024-01-16T11:06:53;11.48;;;4.00;;
56239;SDS011;42154;51.992;5.896;2024-01-16T11:09:20;6.43;;;3.60;;
56239;SDS011;42154;51.992;5.896;2024-01-16T11:11:46;6.88;;;3.53;;
56239;SDS011;42154;51.992;5.896;2024-01-16T11:14:15;7.28;;;3.28;;
56239;SDS011;42154;51.992;5.896;2024-01-16T11:16:42;7.72;;;3.47;;
56239;SDS011;42154;51.992;5.896;2024-01-16T11:19:09;9.75;;;3.58;;
56239;SDS011;42154;51.992;5.896;2024-01-16T11:21:38;5.63;;;3.13;;
56239;SDS011;42154;51.992;5.896;2024-01-16T11:24:05;6.57;;;3.25;;
56239;SDS011;42154;51.992;5.896;2024-01-16T11:26:31;9.55;;;3.55;;
56239;SDS011;42154;51.992;5.896;2024-01-16T11:28:59;6.05;;;2.95;;
56239;SDS011;42154;51.992;5.896;2024-01-16T11:31:32;3.67;;;2.90;;
56239;SDS011;42154;51.992;5.896;2024-01-16T11:33:59;5.47;;;3.00;;
56239;SDS011;42154;51.992;5.896;2024-01-16T11:39:20;5.65;;;2.75;;
56239;SDS011;42154;51.992;5.896;2024-01-16T11:41:51;6.30;;;3.17;;
56239;SDS011;42154;51.992;5.896;2024-01-16T11:44:39;8.15;;;3.03;;
56239;SDS011;42154;51.992;5.896;2024-01-16T11:47:09;4.53;;;3.13;;
56239;SDS011;42154;51.992;5.896;2024-01-16T11:49:41;6.28;;;3.17;;
56239;SDS011;42154;51.992;5.896;2024-01-16T11:52:07;5.93;;;3.20;;
56239;SDS011;42154;51.992;5.896;2024-01-16T11:54:33;4.90;;;3.00;;
56239;SDS011;42154;51.992;5.896;2024-01-16T11:59:57;5.15;;;3.42;;
56239;SDS011;42154;51.992;5.896;2024-01-16T12:02:53;6.03;;;3.13;;
56239;SDS011;42154;51.992;5.896;2024-01-16T12:05:21;8.07;;;3.05;;
56239;SDS011;42154;51.992;5.896;2024-01-16T12:07:49;7.22;;;3.42;;
56239;SDS011;42154;51.992;5.896;2024-01-16T12:10:16;5.95;;;3.67;;
56239;SDS011;42154;51.992;5.896;2024-01-16T12:12:43;5.90;;;3.20;;
56239;SDS011;42154;51.992;5.896;2024-01-16T12:15:19;6.57;;;3.53;;
56239;SDS011;42154;51.992;5.896;2024-01-16T12:20:20;8.32;;;3.88;;
56239;SDS011;42154;51.992;5.896;2024-01-16T12:22:53;11.02;;;4.03;;
56239;SDS011;42154;51.992;5.896;2024-01-16T12:25:30;9.75;;;3.45;;
56239;SDS011;42154;51.992;5.896;2024-01-16T12:28:04;9.35;;;4.07;;
56239;SDS011;42154;51.992;5.896;2024-01-16T12:30:31;6.50;;;3.45;;
56239;SDS011;42154;51.992;5.896;2024-01-16T12:33:04;4.78;;;3.13;;
56239;SDS011;42154;51.992;5.896;2024-01-16T12:35:35;6.95;;;3.25;;
56239;SDS011;42154;51.992;5.896;2024-01-16T12:38:01;6.57;;;3.03;;
56239;SDS011;42154;51.992;5.896;2024-01-16T12:40:28;7.97;;;3.60;;
56239;SDS011;42154;51.992;5.896;2024-01-16T12:42:54;7.05;;;3.60;;
56239;SDS011;42154;51.992;5.896;2024-01-16T12:45:21;6.57;;;3.45;;
56239;SDS011;42154;51.992;5.896;2024-01-16T12:47:51;12.65;;;4.22;;
56239;SDS011;42154;51.992;5.896;2024-01-16T12:50:21;6.88;;;3.70;;
56239;SDS011;42154;51.992;5.896;2024-01-16T12:52:48;7.72;;;3.35;;
56239;SDS011;42154;51.992;5.896;2024-01-16T12:55:15;7.60;;;3.50;;
56239;SDS011;42154;51.992;5.896;2024-01-16T12:57:44;8.10;;;3.72;;
56239;SDS011;42154;51.992;5.896;2024-01-16T13:00:23;7.72;;;3.45;;
56239;SDS011;42154;51.992;5.896;2024-01-16T13:02:53;5.80;;;3.83;;
56239;SDS011;42154;51.992;5.896;2024-01-16T13:05:22;8.70;;;3.72;;
56239;SDS011;42154;51.992;5.896;2024-01-16T13:07:59;6.18;;;3.35;;
56239;SDS011;42154;51.992;5.896;2024-01-16T13:10:28;8.15;;;3.80;;
56239;SDS011;42154;51.992;5.896;2024-01-16T13:15:57;7.55;;;3.78;;
56239;SDS011;42154;51.992;5.896;2024-01-16T13:18:24;6.07;;;3.47;;
56239;SDS011;42154;51.992;5.896;2024-01-16T13:20:51;8.07;;;3.58;;
56239;SDS011;42154;51.992;5.896;2024-01-16T13:23:18;7.05;;;3.95;;
56239;SDS011;42154;51.992;5.896;2024-01-16T13:25:46;7.40;;;3.67;;
56239;SDS011;42154;51.992;5.896;2024-01-16T13:28:12;8.98;;;3.67;;
56239;SDS011;42154;51.992;5.896;2024-01-16T13:30:39;8.25;;;3.45;;
56239;SDS011;42154;51.992;5.896;2024-01-16T13:33:06;9.95;;;3.35;;
56239;SDS011;42154;51.992;5.896;2024-01-16T13:35:34;8.20;;;3.65;;
56239;SDS011;42154;51.992;5.896;2024-01-16T13:38:04;6.88;;;4.05;;
56239;SDS011;42154;51.992;5.896;2024-01-16T13:40:31;6.70;;;3.25;;
56239;SDS011;42154;51.992;5.896;2024-01-16T13:42:57;6.47;;;3.20;;
56239;SDS011;42154;51.992;5.896;2024-01-16T13:45:24;7.32;;;3.40;;
56239;SDS011;42154;51.992;5.896;2024-01-16T13:47:49;5.30;;;3.22;;
56239;SDS011;42154;51.992;5.896;2024-01-16T13:50:15;8.68;;;3.85;;
56239;SDS011;42154;51.992;5.896;2024-01-16T13:52:42;6.30;;;3.83;;
56239;SDS011;42154;51.992;5.896;2024-01-16T13:55:08;5.75;;;2.85;;
56239;SDS011;42154;51.992;5.896;2024-01-16T13:57:34;7.47;;;3.33;;
56239;SDS011;42154;51.992;5.896;2024-01-16T14:00:04;6.47;;;3.05;;
56239;SDS011;42154;51.992;5.896;2024-01-16T14:02:38;6.20;;;3.40;;
56239;SDS011;42154;51.992;5.896;2024-01-16T14:05:19;6.07;;;3.50;;
56239;SDS011;42154;51.992;5.896;2024-01-16T14:07:50;10.80;;;3.92;;
56239;SDS011;42154;51.992;5.896;2024-01-16T14:10:17;5.05;;;3.40;;
56239;SDS011;42154;51.992;5.896;2024-01-16T14:12:44;6.30;;;3.20;;
56239;SDS011;42154;51.992;5.896;2024-01-16T14:15:11;8.30;;;3.45;;
56239;SDS011;42154;51.992;5.896;2024-01-16T14:17:45;4.47;;;2.13;;
56239;SDS011;42154;51.992;5.896;2024-01-16T14:20:12;6.22;;;2.53;;
56239;SDS011;42154;51.992;5.896;2024-01-16T14:22:39;6.30;;;3.50;;
56239;SDS011;42154;51.992;5.896;2024-01-16T14:25:07;6.50;;;3.40;;
56239;SDS011;42154;51.992;5.896;2024-01-16T14:27:38;7.97;;;3.22;;
56239;SDS011;42154;51.992;5.896;2024-01-16T14:30:11;7.05;;;3.47;;
56239;SDS011;42154;51.992;5.896;2024-01-16T14:32:44;5.63;;;3.20;;
56239;SDS011;42154;51.992;5.896;2024-01-16T14:35:12;7.32;;;3.40;;
56239;SDS011;42154;51.992;5.896;2024-01-16T14:37:39;5.97;;;3.17;;
56239;SDS011;42154;51.992;5.896;2024-01-16T14:40:06;6.72;;;3.65;;
56239;SDS011;42154;51.992;5.896;2024-01-16T14:42:40;7.72;;;3.38;;
56239;SDS011;42154;51.992;5.896;2024-01-16T14:45:07;7.18;;;3.15;;
56239;SDS011;42154;51.992;5.896;2024-01-16T14:47:36;7.95;;;3.40;;
56239;SDS011;42154;51.992;5.896;2024-01-16T14:50:03;6.68;;;3.30;;
56239;SDS011;42154;51.992;5.896;2024-01-16T14:52:29;7.80;;;3.60;;
56239;SDS011;42154;51.992;5.896;2024-01-16T14:54:58;5.80;;;2.97;;
56239;SDS011;42154;51.992;5.896;2024-01-16T14:57:24;5.95;;;2.92;;
56239;SDS011;42154;51.992;5.896;2024-01-16T14:59:50;4.47;;;2.80;;
56239;SDS011;42154;51.992;5.896;2024-01-16T15:02:16;7.85;;;2.90;;